OEWJ

Al-Wajh Domestic Airport

Airport
ICAO code
OEWJ
IATA Code
EJH
Summary
ICAO Region
MID
ICAO Territory
Location

Al-Wajh, Tabuk Region

Serving
Al Wajh
Elevation
66 ft
Coordinates
26° 11' 54" N , 36° 28' 32" E
KCC
Metar
Observation
OEWJ 271300Z 17008KT CAVOK 29/11 Q1012 NOSIG
Station
Wejh
Date/Time
2023-01-27 13:00:00
Wind direction
170°
Wind speed
08 kts
Lowest cloud amount
clouds and visibility OK
Temperature
29°C
Dew point
11°C
Humidity
32%
QNH
1012 hPa
Weather condition
n/a

Al Wajh Domestic Airport is located 20 km northeast of Al Wajh (Wejh), Saudi Arabia.

Climatology

Hot Desert Climate (Köppen climate classification BWh) - Hot desert climates are typically found in the subtropics where there is unbroken sunshine for the whole year due to the stable descending air and high pressure, little or no precipitation. Maximum temperatures of 40°C to 45°C are not uncommon, particularly during the warmer months of the year. During colder periods of the year, night-time temperatures can drop to freezing or below due to the exceptional radiation loss under the clear skies. However, very rarely do temperatures drop far below freezing.

Runways

Designator Length Width Surface Rops
15/33 3050 45 ASP Yes/Yes

Airport map

Aerial View

SKYbrary Partners:

Safety knowledge contributed by: